createdAt,value
2019-03-06T00:00:31.015Z,1002.21
2019-03-06T00:01:30.973Z,1002.19
2019-03-06T00:02:30.948Z,1002.22
2019-03-06T00:03:30.926Z,1002.21
2019-03-06T00:04:30.901Z,1002.18
2019-03-06T00:05:30.872Z,1002.21
2019-03-06T00:06:30.847Z,1002.19
2019-03-06T00:07:30.824Z,1002.20
2019-03-06T00:08:30.798Z,1002.20
2019-03-06T00:09:30.773Z,1002.22
2019-03-06T00:10:30.757Z,1002.20
2019-03-06T00:11:30.726Z,1002.19
2019-03-06T00:12:30.699Z,1002.18
2019-03-06T00:13:30.673Z,1002.15
2019-03-06T00:14:30.650Z,1002.17
2019-03-06T00:15:30.629Z,1002.16
2019-03-06T00:16:30.600Z,1002.17
2019-03-06T00:17:30.575Z,1002.16
2019-03-06T00:18:30.551Z,1002.16
2019-03-06T00:19:30.530Z,1002.16
2019-03-06T00:20:30.505Z,1002.15
2019-03-06T00:21:30.476Z,1002.11
2019-03-06T00:22:30.453Z,1002.13
2019-03-06T00:23:30.433Z,1002.10
2019-03-06T00:24:30.401Z,1002.11
2019-03-06T00:25:30.376Z,1002.11
2019-03-06T00:26:30.352Z,1002.11
2019-03-06T00:27:30.328Z,1002.12
2019-03-06T00:28:30.302Z,1002.12
2019-03-06T00:29:30.276Z,1002.09
2019-03-06T00:30:30.253Z,1002.11
2019-03-06T00:31:30.232Z,1002.09
2019-03-06T00:32:30.205Z,1002.10
2019-03-06T00:33:30.177Z,1002.08
2019-03-06T00:34:30.154Z,1002.08
2019-03-06T00:35:30.129Z,1002.07
2019-03-06T00:36:30.107Z,1002.07
2019-03-06T00:37:30.079Z,1002.01
2019-03-06T00:38:30.072Z,1002.01
2019-03-06T00:39:30.033Z,1001.95
2019-03-06T00:40:30.005Z,1001.89
2019-03-06T00:41:29.979Z,1001.94
2019-03-06T00:42:29.955Z,1001.95
2019-03-06T00:43:29.930Z,1001.94
2019-03-06T00:44:29.906Z,1001.97
2019-03-06T00:45:29.881Z,1001.96
2019-03-06T00:46:29.861Z,1001.97
2019-03-06T00:47:29.833Z,1001.96
2019-03-06T00:48:29.812Z,1001.99
2019-03-06T00:49:29.781Z,1002.00
2019-03-06T00:50:29.757Z,1002.00
2019-03-06T00:51:29.732Z,1001.97
2019-03-06T00:52:29.713Z,1001.98
2019-03-06T00:53:29.691Z,1002.01
2019-03-06T00:54:29.657Z,1001.99
2019-03-06T00:55:29.636Z,1002.01
2019-03-06T00:56:29.608Z,1002.02
2019-03-06T00:57:29.585Z,1002.07
2019-03-06T00:58:29.563Z,1002.03
2019-03-06T00:59:29.542Z,1002.04
2019-03-06T01:00:29.509Z,1002.04
2019-03-06T01:01:29.484Z,1002.04
2019-03-06T01:02:29.461Z,1002.03
2019-03-06T01:03:29.435Z,1002.03
2019-03-06T01:04:29.413Z,1002.01
2019-03-06T01:05:29.383Z,1002.00
2019-03-06T01:06:29.361Z,1001.98
2019-03-06T01:07:29.338Z,1002.01
2019-03-06T01:08:29.311Z,1002.00
2019-03-06T01:09:29.296Z,1001.98
2019-03-06T01:10:29.261Z,1002.00
2019-03-06T01:11:29.238Z,1002.01
2019-03-06T01:12:29.216Z,1002.02
2019-03-06T01:13:29.187Z,1001.97
2019-03-06T01:14:29.162Z,1001.99
2019-03-06T01:15:29.137Z,1001.97
2019-03-06T01:16:29.115Z,1001.94
2019-03-06T01:17:29.088Z,1001.94
2019-03-06T01:18:29.063Z,1001.87
2019-03-06T01:19:29.061Z,1001.83
2019-03-06T01:20:29.015Z,1001.83
2019-03-06T01:21:28.988Z,1001.80
2019-03-06T01:22:28.973Z,1001.77
2019-03-06T01:23:28.941Z,1001.78
2019-03-06T01:24:28.919Z,1001.77
2019-03-06T01:25:28.889Z,1001.72
2019-03-06T01:26:28.868Z,1001.69
2019-03-06T01:27:28.842Z,1001.67
2019-03-06T01:28:28.819Z,1001.66
2019-03-06T01:29:28.793Z,1001.63
2019-03-06T01:30:28.780Z,1001.62
2019-03-06T01:31:28.743Z,1001.60
2019-03-06T01:32:28.718Z,1001.59
2019-03-06T01:33:28.694Z,1001.61
2019-03-06T01:34:28.669Z,1001.61
2019-03-06T01:35:28.647Z,1001.59
2019-03-06T01:36:28.620Z,1001.59
2019-03-06T01:37:28.594Z,1001.58
2019-03-06T01:38:28.570Z,1001.57
2019-03-06T01:39:28.552Z,1001.53
2019-03-06T01:40:28.522Z,1001.54
2019-03-06T01:41:28.496Z,1001.52
2019-03-06T01:42:28.476Z,1001.51
2019-03-06T01:43:28.456Z,1001.54
2019-03-06T01:44:28.423Z,1001.48
2019-03-06T01:45:28.398Z,1001.55
2019-03-06T01:46:28.396Z,1001.53
2019-03-06T01:47:28.349Z,1001.52
2019-03-06T01:48:28.327Z,1001.49
2019-03-06T01:49:28.299Z,1001.53
2019-03-06T01:50:28.312Z,1001.55
2019-03-06T01:51:28.251Z,1001.52
2019-03-06T01:52:28.227Z,1001.54
2019-03-06T01:53:28.206Z,1001.53
2019-03-06T01:54:28.183Z,1001.50
2019-03-06T01:55:28.152Z,1001.48
2019-03-06T01:56:28.129Z,1001.50
2019-03-06T01:57:28.103Z,1001.49
2019-03-06T01:58:28.077Z,1001.48
2019-03-06T01:59:28.054Z,1001.47
2019-03-06T02:00:28.029Z,1001.44
2019-03-06T02:01:28.003Z,1001.44
2019-03-06T02:02:27.986Z,1001.47
2019-03-06T02:03:27.954Z,1001.43
2019-03-06T02:04:27.930Z,1001.42
2019-03-06T02:05:27.905Z,1001.40
2019-03-06T02:06:27.882Z,1001.36
2019-03-06T02:07:27.859Z,1001.34
2019-03-06T02:08:27.832Z,1001.34
2019-03-06T02:09:27.819Z,1001.29
2019-03-06T02:10:27.783Z,1001.27
2019-03-06T02:11:27.758Z,1001.21
2019-03-06T02:12:27.738Z,1001.23
2019-03-06T02:13:27.707Z,1001.23
2019-03-06T02:14:27.686Z,1001.22
2019-03-06T02:15:27.660Z,1001.22
2019-03-06T02:16:27.637Z,1001.22
2019-03-06T02:17:27.610Z,1001.16
2019-03-06T02:18:27.592Z,1001.14
2019-03-06T02:19:27.560Z,1001.14
2019-03-06T02:20:27.543Z,1001.14
2019-03-06T02:21:27.514Z,1001.14
2019-03-06T02:22:27.490Z,1001.16
2019-03-06T02:23:27.463Z,1001.11
2019-03-06T02:24:27.442Z,1001.10
2019-03-06T02:25:27.415Z,1001.11
2019-03-06T02:26:27.389Z,1001.09
2019-03-06T02:27:27.365Z,1001.01
2019-03-06T02:28:27.343Z,1001.05
2019-03-06T02:29:27.315Z,1000.97
2019-03-06T02:30:27.295Z,1000.96
2019-03-06T02:31:27.268Z,1000.94
2019-03-06T02:32:27.245Z,1000.95
2019-03-06T02:33:27.220Z,1000.92
2019-03-06T02:34:27.203Z,1000.93
2019-03-06T02:35:27.170Z,1000.88
2019-03-06T02:36:27.148Z,1000.85
2019-03-06T02:37:27.121Z,1000.83
2019-03-06T02:38:27.096Z,1000.75
2019-03-06T02:39:27.079Z,1000.74
2019-03-06T02:40:27.050Z,1000.75
2019-03-06T02:41:27.028Z,1000.79
2019-03-06T02:42:26.999Z,1000.69
2019-03-06T02:43:26.975Z,1000.66
2019-03-06T02:44:26.950Z,1000.66
2019-03-06T02:45:26.929Z,1000.63
2019-03-06T02:46:26.901Z,1000.64
2019-03-06T02:47:26.879Z,1000.64
2019-03-06T02:48:26.854Z,1000.63
2019-03-06T02:49:26.827Z,1000.62
2019-03-06T02:50:26.806Z,1000.63
2019-03-06T02:51:26.783Z,1000.65
2019-03-06T02:52:26.760Z,1000.66
2019-03-06T02:53:26.730Z,1000.71
2019-03-06T02:54:26.706Z,1000.72
2019-03-06T02:55:26.681Z,1000.69
2019-03-06T02:56:26.658Z,1000.67
2019-03-06T02:57:26.634Z,1000.65
2019-03-06T02:58:26.623Z,1000.64
2019-03-06T02:59:26.592Z,1000.64
2019-03-06T03:00:26.560Z,1000.61
2019-03-06T03:01:26.539Z,1000.59
2019-03-06T03:02:26.509Z,1000.55
2019-03-06T03:03:26.486Z,1000.54
2019-03-06T03:04:26.465Z,1000.49
2019-03-06T03:05:26.435Z,1000.52
2019-03-06T03:06:26.417Z,1000.52
2019-03-06T03:07:26.386Z,1000.53
2019-03-06T03:08:26.362Z,1000.45
2019-03-06T03:09:26.343Z,1000.44
2019-03-06T03:10:26.312Z,1000.42
2019-03-06T03:11:26.287Z,1000.40
2019-03-06T03:12:26.265Z,1000.39
2019-03-06T03:13:26.242Z,1000.38
2019-03-06T03:14:26.218Z,1000.38
2019-03-06T03:15:26.190Z,1000.34
2019-03-06T03:16:26.170Z,1000.34
2019-03-06T03:17:26.149Z,1000.33
2019-03-06T03:18:26.116Z,1000.29
2019-03-06T03:19:26.093Z,1000.25
2019-03-06T03:20:26.067Z,1000.28
2019-03-06T03:21:27.094Z,1000.26
2019-03-06T03:22:26.018Z,1000.26
2019-03-06T03:23:25.994Z,1000.23
2019-03-06T03:24:25.972Z,1000.22
2019-03-06T03:25:25.943Z,1000.23
2019-03-06T03:26:25.919Z,1000.22
2019-03-06T03:27:25.893Z,1000.20
2019-03-06T03:28:25.871Z,1000.15
2019-03-06T03:29:25.845Z,1000.16
2019-03-06T03:30:25.826Z,1000.11
2019-03-06T03:31:25.809Z,1000.09
2019-03-06T03:32:25.773Z,1000.03
2019-03-06T03:33:25.753Z,999.99
2019-03-06T03:34:25.730Z,999.97
2019-03-06T03:35:25.696Z,999.93
2019-03-06T03:36:25.673Z,999.92
2019-03-06T03:37:25.650Z,999.90
2019-03-06T03:38:25.621Z,999.86
2019-03-06T03:39:25.613Z,999.81
2019-03-06T03:40:25.575Z,999.84
2019-03-06T03:41:25.549Z,999.81
2019-03-06T03:42:25.523Z,999.81
2019-03-06T03:43:25.497Z,999.79
2019-03-06T03:44:25.477Z,999.79
2019-03-06T03:45:25.460Z,999.83
2019-03-06T03:46:25.425Z,999.87
2019-03-06T03:47:25.400Z,999.84
2019-03-06T03:48:25.375Z,999.86
2019-03-06T03:49:27.775Z,999.89
2019-03-06T03:50:25.322Z,999.90
2019-03-06T03:51:25.300Z,999.94
2019-03-06T03:52:25.274Z,999.89
2019-03-06T03:53:25.249Z,999.89
2019-03-06T03:54:25.265Z,999.87
2019-03-06T03:55:25.201Z,999.84
2019-03-06T03:56:25.204Z,999.82
2019-03-06T03:57:25.164Z,999.79
2019-03-06T03:58:25.127Z,999.75
2019-03-06T03:59:25.101Z,999.77
2019-03-06T04:00:25.079Z,999.70
2019-03-06T04:01:25.052Z,999.67
2019-03-06T04:02:25.028Z,999.67
2019-03-06T04:03:25.002Z,999.64
2019-03-06T04:04:24.978Z,999.65
2019-03-06T04:05:24.959Z,999.61
2019-03-06T04:06:24.931Z,999.61
2019-03-06T04:07:24.909Z,999.64
2019-03-06T04:08:24.878Z,999.64
2019-03-06T04:09:24.854Z,999.63
2019-03-06T04:10:24.829Z,999.65
2019-03-06T04:11:24.805Z,999.62
2019-03-06T04:12:24.783Z,999.59
2019-03-06T04:13:24.755Z,999.62
2019-03-06T04:14:24.734Z,999.59
2019-03-06T04:15:24.709Z,999.60
2019-03-06T04:16:24.681Z,999.59
2019-03-06T04:17:24.659Z,999.61
2019-03-06T04:18:24.632Z,999.61
2019-03-06T04:19:24.609Z,999.58
2019-03-06T04:20:24.589Z,999.58
2019-03-06T04:21:24.558Z,999.59
2019-03-06T04:22:24.537Z,999.59
2019-03-06T04:23:24.518Z,999.58
2019-03-06T04:24:24.485Z,999.58
2019-03-06T04:25:24.470Z,999.62
2019-03-06T04:26:24.438Z,999.59
2019-03-06T04:27:24.414Z,999.65
2019-03-06T04:28:24.386Z,999.69
2019-03-06T04:29:24.360Z,999.68
2019-03-06T04:30:24.341Z,999.70
2019-03-06T04:31:24.312Z,999.67
2019-03-06T04:32:24.287Z,999.63
2019-03-06T04:33:24.263Z,999.67
2019-03-06T04:34:24.239Z,999.63
2019-03-06T04:35:24.217Z,999.65
2019-03-06T04:36:24.189Z,999.65
2019-03-06T04:37:24.164Z,999.67
2019-03-06T04:38:24.143Z,999.64
2019-03-06T04:39:24.114Z,999.65
2019-03-06T04:40:24.094Z,999.64
2019-03-06T04:41:24.065Z,999.62
2019-03-06T04:42:24.045Z,999.66
2019-03-06T04:43:24.017Z,999.65
2019-03-06T04:44:23.993Z,999.66
2019-03-06T04:45:23.968Z,999.68
2019-03-06T04:46:23.948Z,999.67
2019-03-06T04:47:23.919Z,999.62
2019-03-06T04:48:23.896Z,999.62
2019-03-06T04:49:23.878Z,999.60
2019-03-06T04:50:23.848Z,999.54
2019-03-06T04:51:23.840Z,999.53
2019-03-06T04:52:23.797Z,999.48
2019-03-06T04:53:23.771Z,999.48
2019-03-06T04:54:23.747Z,999.49
2019-03-06T04:55:23.722Z,999.48
2019-03-06T04:56:23.763Z,999.43
2019-03-06T04:57:23.675Z,999.42
2019-03-06T04:58:23.699Z,999.41
2019-03-06T04:59:23.626Z,999.38
2019-03-06T05:00:23.603Z,999.31
2019-03-06T05:01:23.576Z,999.30
2019-03-06T05:02:23.556Z,999.25
2019-03-06T05:03:23.533Z,999.29
2019-03-06T05:04:23.624Z,999.27
2019-03-06T05:05:23.478Z,999.27
2019-03-06T05:06:23.522Z,999.26
2019-03-06T05:07:23.447Z,999.19
2019-03-06T05:08:23.520Z,999.26
2019-03-06T05:09:23.382Z,999.15
2019-03-06T05:10:23.409Z,999.15
2019-03-06T05:11:23.333Z,999.11
2019-03-06T05:12:23.309Z,999.07
2019-03-06T05:13:25.255Z,999.11
2019-03-06T05:14:23.260Z,999.08
2019-03-06T05:15:23.236Z,999.06
2019-03-06T05:16:23.220Z,999.04
2019-03-06T05:17:23.185Z,999.00
2019-03-06T05:18:23.162Z,998.98
2019-03-06T05:19:23.139Z,998.98
2019-03-06T05:20:23.115Z,998.92
2019-03-06T05:21:23.087Z,998.94
2019-03-06T05:22:23.062Z,998.95
2019-03-06T05:23:23.039Z,998.98
2019-03-06T05:24:23.019Z,999.00
2019-03-06T05:25:23.001Z,998.98
2019-03-06T05:26:22.971Z,999.01
2019-03-06T05:27:22.941Z,998.98
2019-03-06T05:28:22.921Z,998.96
2019-03-06T05:29:22.895Z,998.96
2019-03-06T05:30:22.868Z,998.93
2019-03-06T05:31:22.844Z,998.94
2019-03-06T05:32:22.820Z,998.87
2019-03-06T05:33:22.794Z,998.88
2019-03-06T05:34:22.771Z,998.86
2019-03-06T05:35:22.748Z,998.81
2019-03-06T05:36:22.723Z,998.80
2019-03-06T05:37:22.705Z,998.75
2019-03-06T05:38:22.674Z,998.77
2019-03-06T05:39:22.657Z,998.75
2019-03-06T05:40:22.626Z,998.73
2019-03-06T05:41:22.602Z,998.76
2019-03-06T05:42:22.594Z,998.72
2019-03-06T05:43:22.556Z,998.70
2019-03-06T05:44:22.529Z,998.69
2019-03-06T05:45:22.504Z,998.68
2019-03-06T05:46:22.480Z,998.66
2019-03-06T05:47:22.460Z,998.68
2019-03-06T05:48:22.436Z,998.66
2019-03-06T05:49:22.415Z,998.68
2019-03-06T05:50:22.381Z,998.67
2019-03-06T05:51:22.359Z,998.63
2019-03-06T05:52:22.332Z,998.63
2019-03-06T05:53:22.319Z,998.60
2019-03-06T05:54:22.284Z,998.58
2019-03-06T05:55:22.261Z,998.59
2019-03-06T05:56:22.235Z,998.64
2019-03-06T05:57:22.217Z,998.59
2019-03-06T05:58:22.187Z,998.59
2019-03-06T05:59:22.162Z,998.53
2019-03-06T06:00:22.139Z,998.53
2019-03-06T06:01:22.114Z,998.56
2019-03-06T06:02:22.092Z,998.48
2019-03-06T06:03:22.067Z,998.39
2019-03-06T06:04:22.041Z,998.32
2019-03-06T06:05:22.016Z,998.26
2019-03-06T06:06:21.994Z,998.21
2019-03-06T06:07:21.971Z,998.15
2019-03-06T06:08:21.944Z,998.13
2019-03-06T06:09:21.919Z,998.12
2019-03-06T06:10:21.896Z,998.09
2019-03-06T06:11:21.870Z,998.06
2019-03-06T06:12:21.846Z,998.07
2019-03-06T06:13:21.821Z,998.07
2019-03-06T06:14:21.800Z,998.05
2019-03-06T06:15:21.775Z,998.03
2019-03-06T06:16:21.755Z,998.02
2019-03-06T06:17:21.724Z,997.98
2019-03-06T06:18:21.703Z,997.96
2019-03-06T06:19:21.677Z,997.95
2019-03-06T06:20:21.665Z,997.92
2019-03-06T06:21:21.627Z,997.99
2019-03-06T06:22:21.603Z,997.97
2019-03-06T06:23:21.580Z,997.95
2019-03-06T06:24:21.555Z,997.90
2019-03-06T06:25:21.530Z,997.92
2019-03-06T06:26:21.510Z,997.92
2019-03-06T06:27:21.484Z,997.90
2019-03-06T06:28:21.457Z,997.87
2019-03-06T06:29:21.432Z,997.95
2019-03-06T06:30:22.097Z,998.00
2019-03-06T06:31:21.389Z,998.08
2019-03-06T06:32:21.360Z,998.07
2019-03-06T06:33:21.340Z,998.05
2019-03-06T06:34:21.313Z,997.96
2019-03-06T06:35:21.295Z,997.99
2019-03-06T06:36:21.268Z,997.96
2019-03-06T06:37:21.239Z,997.97
2019-03-06T06:38:21.215Z,997.93
2019-03-06T06:39:21.191Z,997.91
2019-03-06T06:40:21.168Z,997.94
2019-03-06T06:41:21.142Z,997.94
2019-03-06T06:42:21.122Z,997.92
2019-03-06T06:43:21.094Z,997.89
2019-03-06T06:44:21.075Z,997.83
2019-03-06T06:45:21.046Z,997.81
2019-03-06T06:46:21.023Z,997.81
2019-03-06T06:47:20.997Z,997.80
2019-03-06T06:48:20.973Z,997.76
2019-03-06T06:49:20.956Z,997.79
2019-03-06T06:50:20.968Z,997.76
2019-03-06T06:51:20.901Z,997.79
2019-03-06T06:52:20.877Z,997.75
2019-03-06T06:53:20.852Z,997.76
2019-03-06T06:54:20.829Z,997.76
2019-03-06T06:55:20.805Z,997.69
2019-03-06T06:56:20.781Z,997.72
2019-03-06T06:57:20.812Z,997.67
2019-03-06T06:58:20.732Z,997.68
2019-03-06T06:59:20.708Z,997.65
2019-03-06T07:00:20.685Z,997.62
2019-03-06T07:01:20.659Z,997.60
2019-03-06T07:02:20.636Z,997.61
2019-03-06T07:03:22.326Z,997.57
2019-03-06T07:04:20.589Z,997.55
2019-03-06T07:05:20.568Z,997.53
2019-03-06T07:06:20.540Z,997.55
2019-03-06T07:07:20.517Z,997.52
2019-03-06T07:08:20.504Z,997.52
2019-03-06T07:09:20.470Z,997.52
2019-03-06T07:10:20.443Z,997.48
2019-03-06T07:11:20.420Z,997.47
2019-03-06T07:12:20.397Z,997.48
2019-03-06T07:13:20.374Z,997.45
2019-03-06T07:14:20.349Z,997.47
2019-03-06T07:15:20.324Z,997.44
2019-03-06T07:16:20.299Z,997.38
2019-03-06T07:17:20.279Z,997.37
2019-03-06T07:18:20.252Z,997.36
2019-03-06T07:19:20.229Z,997.31
2019-03-06T07:20:20.206Z,997.30
2019-03-06T07:21:20.179Z,997.31
2019-03-06T07:22:20.155Z,997.26
2019-03-06T07:23:20.133Z,997.27
2019-03-06T07:24:20.109Z,997.24
2019-03-06T07:25:20.086Z,997.21
2019-03-06T07:26:20.060Z,997.24
2019-03-06T07:27:20.036Z,997.18
2019-03-06T07:28:20.014Z,997.19
2019-03-06T07:29:19.991Z,997.20
2019-03-06T07:30:19.963Z,997.21
2019-03-06T07:31:19.941Z,997.15
2019-03-06T07:32:19.921Z,997.19
2019-03-06T07:33:19.914Z,997.14
2019-03-06T07:34:19.870Z,997.13
2019-03-06T07:35:19.846Z,997.14
2019-03-06T07:36:19.822Z,997.09
2019-03-06T07:37:28.294Z,997.11
2019-03-06T07:38:19.774Z,997.09
2019-03-06T07:39:19.749Z,997.07
2019-03-06T07:40:19.726Z,997.02
2019-03-06T07:41:19.702Z,997.02
2019-03-06T07:42:19.678Z,997.07
2019-03-06T07:43:19.656Z,997.04
2019-03-06T07:44:19.634Z,996.98
2019-03-06T07:45:19.605Z,997.01
2019-03-06T07:46:19.603Z,996.99
2019-03-06T07:47:19.561Z,997.00
2019-03-06T07:48:19.535Z,997.03
2019-03-06T07:49:19.511Z,997.04
2019-03-06T07:50:19.492Z,997.05
2019-03-06T07:51:19.465Z,997.02
2019-03-06T07:52:19.444Z,996.96
2019-03-06T07:53:19.466Z,997.00
2019-03-06T07:54:19.433Z,997.06
2019-03-06T07:55:19.378Z,997.04
2019-03-06T07:56:19.352Z,997.05
2019-03-06T07:57:19.322Z,997.09
2019-03-06T07:58:19.300Z,997.05
2019-03-06T07:59:19.277Z,997.04
2019-03-06T08:00:19.256Z,997.02
2019-03-06T08:01:19.231Z,997.01
2019-03-06T08:02:19.206Z,997.05
2019-03-06T08:03:19.184Z,997.05
2019-03-06T08:04:19.264Z,997.02
2019-03-06T08:05:19.134Z,997.05
2019-03-06T08:06:19.111Z,997.04
2019-03-06T08:07:19.087Z,997.02
2019-03-06T08:08:19.064Z,996.99
2019-03-06T08:09:19.042Z,996.98
2019-03-06T08:10:19.017Z,997.00
2019-03-06T08:11:18.994Z,997.03
2019-03-06T08:12:19.009Z,996.98
2019-03-06T08:13:18.954Z,996.93
2019-03-06T08:14:22.292Z,996.91
2019-03-06T08:15:18.914Z,996.93
2019-03-06T08:16:18.877Z,996.88
2019-03-06T08:17:18.853Z,996.81
2019-03-06T08:18:18.834Z,996.85
2019-03-06T08:19:18.806Z,996.81
2019-03-06T08:20:18.787Z,996.84
2019-03-06T08:21:18.760Z,996.81
2019-03-06T08:22:18.734Z,996.81
2019-03-06T08:23:18.712Z,996.73
2019-03-06T08:24:18.689Z,996.76
2019-03-06T08:25:18.665Z,996.78
2019-03-06T08:26:18.645Z,996.82
2019-03-06T08:27:18.619Z,996.76
2019-03-06T08:28:18.597Z,996.74
2019-03-06T08:29:18.573Z,996.80
2019-03-06T08:30:18.549Z,996.77
2019-03-06T08:31:18.527Z,996.68
2019-03-06T08:32:18.505Z,996.70
2019-03-06T08:33:18.741Z,996.62
2019-03-06T08:34:18.458Z,996.63
2019-03-06T08:35:18.436Z,996.59
2019-03-06T08:36:18.418Z,996.54
2019-03-06T08:37:18.391Z,996.62
2019-03-06T08:38:18.372Z,996.57
2019-03-06T08:39:18.344Z,996.58
2019-03-06T08:40:18.320Z,996.57
2019-03-06T08:41:18.326Z,996.59
2019-03-06T08:42:18.278Z,996.54
2019-03-06T08:43:18.253Z,996.57
2019-03-06T08:44:18.232Z,996.51
2019-03-06T08:45:18.204Z,996.52
2019-03-06T08:46:18.186Z,996.50
2019-03-06T08:47:18.160Z,996.49
2019-03-06T08:48:18.140Z,996.46
2019-03-06T08:49:18.120Z,996.45
2019-03-06T08:50:18.092Z,996.43
2019-03-06T08:51:18.070Z,996.41
2019-03-06T08:52:18.046Z,996.46
2019-03-06T08:53:18.021Z,996.44
2019-03-06T08:54:18.001Z,996.47
2019-03-06T08:55:17.979Z,996.38
2019-03-06T08:56:17.961Z,996.35
2019-03-06T08:57:17.936Z,996.39
2019-03-06T08:58:17.910Z,996.36
2019-03-06T08:59:18.705Z,996.26
2019-03-06T09:00:17.864Z,996.26
2019-03-06T09:01:17.841Z,996.26
2019-03-06T09:02:17.820Z,996.20
2019-03-06T09:03:17.797Z,996.13
2019-03-06T09:04:17.775Z,996.08
2019-03-06T09:05:17.754Z,996.10
2019-03-06T09:06:17.730Z,996.09
2019-03-06T09:07:17.710Z,996.09
2019-03-06T09:08:17.684Z,996.12
2019-03-06T09:09:17.666Z,996.08
2019-03-06T09:10:17.640Z,996.09
2019-03-06T09:11:17.617Z,996.12
2019-03-06T09:12:17.595Z,996.07
2019-03-06T09:13:17.572Z,996.06
2019-03-06T09:14:17.549Z,996.07
2019-03-06T09:15:17.526Z,996.08
2019-03-06T09:16:17.504Z,996.11
2019-03-06T09:17:17.482Z,996.11
2019-03-06T09:18:17.463Z,996.14
2019-03-06T09:19:17.440Z,996.06
2019-03-06T09:20:17.429Z,996.05
2019-03-06T09:21:17.392Z,996.09
2019-03-06T09:22:17.375Z,996.04
2019-03-06T09:23:23.141Z,996.03
2019-03-06T09:24:17.328Z,996.01
2019-03-06T09:25:17.304Z,996.04
2019-03-06T09:26:17.279Z,995.99
2019-03-06T09:27:17.284Z,995.92
2019-03-06T09:28:17.239Z,995.86
2019-03-06T09:29:17.225Z,995.86
2019-03-06T09:30:17.194Z,995.86
2019-03-06T09:31:17.173Z,995.81
2019-03-06T09:32:17.152Z,995.79
2019-03-06T09:33:17.128Z,995.78
2019-03-06T09:34:17.103Z,995.78
2019-03-06T09:35:17.082Z,995.75
2019-03-06T09:36:19.032Z,995.72
2019-03-06T09:37:17.038Z,995.64
2019-03-06T09:38:17.017Z,995.69
2019-03-06T09:39:16.994Z,995.66
2019-03-06T09:40:16.977Z,995.59
2019-03-06T09:41:16.949Z,995.62
2019-03-06T09:42:18.458Z,995.65
2019-03-06T09:43:16.904Z,995.54
2019-03-06T09:44:16.884Z,995.51
2019-03-06T09:45:16.864Z,995.50
2019-03-06T09:46:16.857Z,995.52
2019-03-06T09:47:16.822Z,995.45
2019-03-06T09:48:16.810Z,995.40
2019-03-06T09:49:16.779Z,995.36
2019-03-06T09:50:16.752Z,995.37
2019-03-06T09:51:16.734Z,995.34
2019-03-06T09:52:16.715Z,995.30
2019-03-06T09:53:16.690Z,995.29
2019-03-06T09:54:16.675Z,995.25
2019-03-06T09:55:16.647Z,995.20
2019-03-06T09:56:16.624Z,995.17
2019-03-06T09:57:16.609Z,995.16
2019-03-06T09:58:16.581Z,995.16
2019-03-06T09:59:16.569Z,995.14
2019-03-06T10:00:16.541Z,995.10
2019-03-06T10:01:16.528Z,995.17
2019-03-06T10:02:16.498Z,995.10
2019-03-06T10:03:16.479Z,995.11
2019-03-06T10:04:16.458Z,995.09
2019-03-06T10:05:16.434Z,995.06
2019-03-06T10:06:16.416Z,995.03
2019-03-06T10:07:16.403Z,995.04
2019-03-06T10:08:16.376Z,995.01
2019-03-06T10:09:16.352Z,995.01
2019-03-06T10:10:16.333Z,995.00
2019-03-06T10:11:17.237Z,994.98
2019-03-06T10:12:16.296Z,994.94
2019-03-06T10:13:16.267Z,994.94
2019-03-06T10:14:16.250Z,994.82
2019-03-06T10:15:16.256Z,994.85
2019-03-06T10:16:16.218Z,994.84
2019-03-06T10:17:16.195Z,994.77
2019-03-06T10:18:16.166Z,994.78
2019-03-06T10:19:16.146Z,994.72
2019-03-06T10:20:24.783Z,994.70
2019-03-06T10:21:16.105Z,994.66
2019-03-06T10:22:16.087Z,994.66
2019-03-06T10:23:16.081Z,994.62
2019-03-06T10:24:16.047Z,994.67
2019-03-06T10:25:16.034Z,994.54
2019-03-06T10:26:16.028Z,994.53
2019-03-06T10:27:16.061Z,994.51
2019-03-06T10:28:16.019Z,994.45
2019-03-06T10:29:15.976Z,994.39
2019-03-06T10:30:15.974Z,994.43
2019-03-06T10:31:15.922Z,994.43
2019-03-06T10:32:15.944Z,994.40
2019-03-06T10:33:15.973Z,994.41
2019-03-06T10:34:15.847Z,994.42
2019-03-06T10:35:15.915Z,994.39
2019-03-06T10:36:15.807Z,994.39
2019-03-06T10:37:15.795Z,994.36
2019-03-06T10:38:16.838Z,994.39
2019-03-06T10:39:15.757Z,994.34
2019-03-06T10:40:15.867Z,994.31
2019-03-06T10:41:16.602Z,994.28
2019-03-06T10:42:15.692Z,994.27
2019-03-06T10:43:15.703Z,994.20
2019-03-06T10:44:15.714Z,994.20
2019-03-06T10:45:15.624Z,994.19
2019-03-06T10:46:15.630Z,994.20
2019-03-06T10:47:15.579Z,994.13
2019-03-06T10:48:15.565Z,994.27
2019-03-06T10:49:15.575Z,994.31
2019-03-06T10:50:15.544Z,994.33
2019-03-06T10:51:15.504Z,994.28
2019-03-06T10:52:15.496Z,994.25
2019-03-06T10:53:15.459Z,994.25
2019-03-06T10:54:15.442Z,994.24
2019-03-06T10:55:15.434Z,994.26
2019-03-06T10:56:15.403Z,994.23
2019-03-06T10:57:15.434Z,994.18
2019-03-06T10:58:15.387Z,994.20
2019-03-06T10:59:15.336Z,994.20
2019-03-06T11:00:15.331Z,994.20
2019-03-06T11:01:15.333Z,994.22
2019-03-06T11:02:15.279Z,994.14
2019-03-06T11:03:15.263Z,994.26
2019-03-06T11:04:15.249Z,994.15
2019-03-06T11:05:15.212Z,994.15
2019-03-06T11:06:15.191Z,994.17
2019-03-06T11:07:15.197Z,994.10
2019-03-06T11:08:15.154Z,994.07
2019-03-06T11:09:15.160Z,994.05
2019-03-06T11:10:23.520Z,994.16
2019-03-06T11:11:15.102Z,994.09
2019-03-06T11:12:15.097Z,994.10
2019-03-06T11:13:15.057Z,994.12
2019-03-06T11:14:15.030Z,994.08
2019-03-06T11:15:15.015Z,994.05
2019-03-06T11:16:17.894Z,994.01
2019-03-06T11:17:14.967Z,993.96
2019-03-06T11:18:16.392Z,993.93
2019-03-06T11:19:14.929Z,993.84
2019-03-06T11:20:14.906Z,993.85
2019-03-06T11:21:14.885Z,993.80
2019-03-06T11:22:14.873Z,993.81
2019-03-06T11:23:14.846Z,993.81
2019-03-06T11:24:14.839Z,993.83
2019-03-06T11:25:14.806Z,993.77
2019-03-06T11:26:14.794Z,993.78
2019-03-06T11:27:14.768Z,993.73
2019-03-06T11:28:14.758Z,993.80
2019-03-06T11:29:14.729Z,993.80
2019-03-06T11:30:14.712Z,993.70
2019-03-06T11:31:14.695Z,993.68
2019-03-06T11:32:14.684Z,993.71
2019-03-06T11:33:14.654Z,993.71
2019-03-06T11:34:14.641Z,993.67
2019-03-06T11:35:14.613Z,993.71
2019-03-06T11:36:14.595Z,993.62
2019-03-06T11:37:14.581Z,993.57
2019-03-06T11:38:14.566Z,993.65
2019-03-06T11:39:14.542Z,993.61
2019-03-06T11:40:14.522Z,993.59
2019-03-06T11:41:14.502Z,993.62
2019-03-06T11:42:14.485Z,993.62
2019-03-06T11:43:14.462Z,993.57
2019-03-06T11:44:14.446Z,993.62
2019-03-06T11:45:14.430Z,993.48
2019-03-06T11:46:14.410Z,993.56
2019-03-06T11:47:14.388Z,993.50
2019-03-06T11:48:14.368Z,993.54
2019-03-06T11:49:14.351Z,993.54
2019-03-06T11:50:14.327Z,993.52
2019-03-06T11:51:14.316Z,993.50
2019-03-06T11:52:14.292Z,993.44
2019-03-06T11:53:14.274Z,993.43
2019-03-06T11:54:14.257Z,993.49
2019-03-06T11:55:14.237Z,993.38
2019-03-06T11:56:14.217Z,993.32
2019-03-06T11:57:14.213Z,993.41
2019-03-06T11:58:14.187Z,993.34
2019-03-06T11:59:14.170Z,993.32
2019-03-06T12:00:14.785Z,993.24
2019-03-06T12:01:14.130Z,993.15
2019-03-06T12:02:14.109Z,993.16
2019-03-06T12:03:14.096Z,993.11
2019-03-06T12:04:14.076Z,993.16
2019-03-06T12:05:14.053Z,993.09
2019-03-06T12:06:14.036Z,993.13
2019-03-06T12:07:14.026Z,993.18
2019-03-06T12:08:14.358Z,993.15
2019-03-06T12:09:13.978Z,993.06
2019-03-06T12:10:15.597Z,993.03
2019-03-06T12:11:13.941Z,992.94
2019-03-06T12:12:13.923Z,992.94
2019-03-06T12:13:13.904Z,992.96
2019-03-06T12:14:13.886Z,992.91
2019-03-06T12:15:13.869Z,992.88
2019-03-06T12:16:13.847Z,992.87
2019-03-06T12:17:13.827Z,992.85
2019-03-06T12:18:13.810Z,992.85
2019-03-06T12:19:13.793Z,992.88
2019-03-06T12:20:13.775Z,992.93
2019-03-06T12:21:13.763Z,992.91